createdAt,value
2018-10-12T00:00:09.891Z,5.00
2018-10-12T00:01:09.859Z,5.10
2018-10-12T00:02:09.827Z,5.10
2018-10-12T00:03:09.792Z,5.10
2018-10-12T00:04:09.757Z,5.10
2018-10-12T00:05:09.724Z,5.40
2018-10-12T00:06:09.684Z,5.30
2018-10-12T00:07:09.650Z,5.30
2018-10-12T00:08:09.618Z,5.30
2018-10-12T00:09:09.587Z,5.70
2018-10-12T00:10:09.554Z,5.50
2018-10-12T00:11:09.520Z,5.50
2018-10-12T00:12:09.484Z,5.40
2018-10-12T00:13:09.449Z,5.40
2018-10-12T00:14:09.413Z,5.50
2018-10-12T00:15:09.383Z,5.30
2018-10-12T00:16:09.347Z,5.10
2018-10-12T00:17:09.311Z,4.90
2018-10-12T00:18:09.275Z,5.90
2018-10-12T00:19:09.242Z,5.30
2018-10-12T00:20:09.208Z,5.10
2018-10-12T00:21:09.178Z,5.40
2018-10-12T00:22:09.145Z,5.20
2018-10-12T00:23:09.109Z,5.70
2018-10-12T00:24:09.073Z,4.70
2018-10-12T00:25:09.038Z,5.00
2018-10-12T00:26:09.001Z,4.90
2018-10-12T00:27:08.965Z,4.90
2018-10-12T00:28:08.938Z,5.00
2018-10-12T00:29:08.904Z,5.00
2018-10-12T00:30:08.870Z,4.60
2018-10-12T00:31:08.829Z,4.90
2018-10-12T00:32:08.799Z,5.10
2018-10-12T00:33:08.766Z,4.50
2018-10-12T00:34:08.733Z,4.80
2018-10-12T00:35:08.699Z,4.50
2018-10-12T00:36:08.664Z,5.00
2018-10-12T00:37:08.627Z,5.00
2018-10-12T00:38:08.589Z,4.80
2018-10-12T00:39:08.558Z,5.20
2018-10-12T00:40:08.524Z,5.20
2018-10-12T00:41:08.491Z,4.80
2018-10-12T00:42:08.458Z,4.90
2018-10-12T00:43:08.425Z,4.40
2018-10-12T00:44:08.390Z,4.90
2018-10-12T00:45:08.353Z,5.00
2018-10-12T00:46:08.316Z,4.80
2018-10-12T00:47:08.289Z,4.60
2018-10-12T00:48:08.252Z,4.50
2018-10-12T00:49:08.218Z,4.40
2018-10-12T00:50:08.179Z,4.80
2018-10-12T00:51:08.145Z,4.50
2018-10-12T00:52:08.115Z,4.20
2018-10-12T00:53:08.081Z,4.50
2018-10-12T00:54:08.048Z,4.90
2018-10-12T00:55:08.014Z,4.50
2018-10-12T00:56:07.978Z,4.60
2018-10-12T00:57:07.942Z,5.00
2018-10-12T00:58:07.909Z,4.90
2018-10-12T00:59:07.872Z,4.80
2018-10-12T01:00:07.842Z,4.80
2018-10-12T01:01:07.809Z,4.40
2018-10-12T01:02:07.774Z,4.40
2018-10-12T01:03:07.734Z,4.40
2018-10-12T01:04:07.704Z,5.00
2018-10-12T01:05:07.670Z,4.50
2018-10-12T01:06:07.641Z,4.40
2018-10-12T01:07:07.610Z,4.80
2018-10-12T01:08:07.568Z,4.50
2018-10-12T01:09:07.535Z,4.10
2018-10-12T01:10:07.495Z,4.40
2018-10-12T01:11:07.465Z,4.30
2018-10-12T01:12:07.459Z,4.30
2018-10-12T01:13:07.397Z,4.00
2018-10-12T01:14:07.366Z,4.40
2018-10-12T01:15:07.330Z,4.20
2018-10-12T01:16:07.296Z,4.20
2018-10-12T01:17:07.259Z,4.20
2018-10-12T01:18:07.225Z,4.00
2018-10-12T01:19:07.196Z,4.30
2018-10-12T01:20:07.157Z,4.00
2018-10-12T01:21:07.123Z,4.30
2018-10-12T01:22:07.084Z,4.20
2018-10-12T01:23:07.050Z,3.90
2018-10-12T01:24:07.019Z,3.90
2018-10-12T01:25:06.988Z,4.20
2018-10-12T01:26:06.954Z,4.10
2018-10-12T01:27:06.918Z,3.90
2018-10-12T01:28:06.884Z,3.90
2018-10-12T01:29:06.849Z,4.70
2018-10-12T01:30:06.817Z,4.00
2018-10-12T01:31:06.777Z,4.10
2018-10-12T01:32:06.745Z,4.10
2018-10-12T01:33:06.713Z,4.20
2018-10-12T01:34:06.680Z,4.30
2018-10-12T01:35:06.652Z,4.70
2018-10-12T01:36:06.607Z,4.40
2018-10-12T01:37:06.575Z,4.60
2018-10-12T01:38:06.545Z,4.50
2018-10-12T01:39:06.508Z,4.50
2018-10-12T01:40:06.472Z,4.20
2018-10-12T01:41:06.436Z,4.40
2018-10-12T01:42:06.398Z,4.10
2018-10-12T01:43:06.366Z,4.00
2018-10-12T01:44:06.334Z,4.20
2018-10-12T01:45:06.306Z,4.10
2018-10-12T01:46:06.268Z,4.50
2018-10-12T01:47:06.233Z,4.30
2018-10-12T01:48:06.198Z,4.10
2018-10-12T01:49:06.163Z,4.40
2018-10-12T01:50:06.128Z,4.40
2018-10-12T01:51:06.099Z,4.30
2018-10-12T01:52:06.065Z,4.70
2018-10-12T01:53:06.026Z,4.40
2018-10-12T01:54:05.987Z,4.10
2018-10-12T01:55:05.953Z,4.00
2018-10-12T01:56:05.924Z,4.20
2018-10-12T01:57:05.890Z,4.00
2018-10-12T01:58:05.858Z,4.10
2018-10-12T01:59:05.821Z,3.80
2018-10-12T02:00:05.792Z,3.90
2018-10-12T02:01:05.749Z,3.50
2018-10-12T02:02:05.715Z,3.60
2018-10-12T02:03:05.681Z,3.60
2018-10-12T02:04:05.646Z,3.60
2018-10-12T02:05:05.620Z,3.60
2018-10-12T02:06:05.580Z,3.90
2018-10-12T02:07:05.545Z,4.20
2018-10-12T02:08:05.509Z,3.70
2018-10-12T02:09:05.480Z,4.20
2018-10-12T02:10:05.497Z,4.10
2018-10-12T02:11:05.409Z,3.90
2018-10-12T02:12:05.378Z,3.60
2018-10-12T02:13:05.337Z,4.00
2018-10-12T02:14:05.304Z,4.60
2018-10-12T02:15:05.272Z,4.40
2018-10-12T02:16:05.234Z,4.70
2018-10-12T02:17:05.205Z,4.40
2018-10-12T02:18:05.169Z,4.40
2018-10-12T02:19:05.134Z,4.50
2018-10-12T02:20:05.102Z,4.40
2018-10-12T02:21:05.063Z,4.40
2018-10-12T02:22:05.028Z,4.70
2018-10-12T02:23:04.998Z,5.10
2018-10-12T02:24:04.964Z,4.50
2018-10-12T02:25:04.929Z,4.60
2018-10-12T02:26:04.890Z,4.80
2018-10-12T02:27:04.859Z,4.60
2018-10-12T02:28:04.823Z,4.90
2018-10-12T02:29:04.792Z,4.90
2018-10-12T02:30:04.755Z,5.00
2018-10-12T02:31:04.721Z,5.00
2018-10-12T02:32:04.689Z,5.00
2018-10-12T02:33:04.648Z,5.30
2018-10-12T02:34:04.616Z,4.70
2018-10-12T02:35:04.583Z,5.30
2018-10-12T02:36:04.546Z,4.80
2018-10-12T02:37:04.516Z,5.00
2018-10-12T02:38:04.479Z,4.60
2018-10-12T02:39:04.442Z,5.10
2018-10-12T02:40:04.408Z,4.90
2018-10-12T02:41:04.379Z,4.90
2018-10-12T02:42:04.341Z,4.80
2018-10-12T02:43:04.311Z,4.90
2018-10-12T02:44:04.321Z,4.40
2018-10-12T02:45:04.234Z,4.70
2018-10-12T02:46:04.202Z,5.10
2018-10-12T02:47:04.167Z,4.60
2018-10-12T02:48:04.130Z,4.70
2018-10-12T02:49:04.103Z,4.60
2018-10-12T02:50:04.070Z,5.20
2018-10-12T02:51:04.034Z,4.60
2018-10-12T02:52:04.002Z,4.80
2018-10-12T02:53:03.959Z,4.70
2018-10-12T02:54:03.925Z,5.20
2018-10-12T02:55:03.893Z,4.80
2018-10-12T02:56:03.861Z,4.90
2018-10-12T02:57:03.821Z,4.80
2018-10-12T02:58:03.786Z,4.90
2018-10-12T02:59:03.754Z,4.90
2018-10-12T03:00:03.719Z,4.70
2018-10-12T03:01:03.691Z,4.80
2018-10-12T03:02:03.652Z,4.30
2018-10-12T03:03:03.617Z,4.60
2018-10-12T03:04:03.587Z,4.70
2018-10-12T03:05:03.544Z,4.70
2018-10-12T03:06:03.510Z,4.80
2018-10-12T03:07:03.486Z,4.60
2018-10-12T03:08:03.441Z,4.00
2018-10-12T03:09:03.411Z,3.70
2018-10-12T03:10:03.373Z,4.00
2018-10-12T03:11:03.336Z,4.20
2018-10-12T03:12:03.301Z,4.50
2018-10-12T03:13:03.273Z,4.40
2018-10-12T03:14:03.237Z,4.20
2018-10-12T03:15:03.200Z,4.30
2018-10-12T03:16:03.168Z,4.00
2018-10-12T03:17:03.128Z,4.10
2018-10-12T03:18:03.126Z,4.30
2018-10-12T03:19:03.060Z,3.90
2018-10-12T03:20:03.025Z,3.80
2018-10-12T03:21:02.995Z,3.90
2018-10-12T03:22:02.958Z,3.90
2018-10-12T03:23:02.927Z,3.50
2018-10-12T03:24:02.891Z,3.50
2018-10-12T03:25:02.851Z,3.60
2018-10-12T03:26:02.816Z,3.40
2018-10-12T03:27:02.786Z,3.70
2018-10-12T03:28:02.759Z,3.50
2018-10-12T03:29:02.714Z,3.70
2018-10-12T03:30:02.679Z,3.30
2018-10-12T03:31:02.661Z,3.50
2018-10-12T03:32:02.608Z,3.50
2018-10-12T03:33:02.582Z,3.40
2018-10-12T03:34:02.543Z,3.20
2018-10-12T03:35:02.508Z,2.90
2018-10-12T03:36:02.479Z,3.40
2018-10-12T03:37:02.468Z,3.30
2018-10-12T03:38:02.402Z,3.40
2018-10-12T03:39:02.368Z,3.20
2018-10-12T03:40:02.333Z,3.60
2018-10-12T03:41:02.303Z,3.30
2018-10-12T03:42:02.266Z,3.20
2018-10-12T03:43:02.231Z,4.00
2018-10-12T03:44:02.194Z,4.00
2018-10-12T03:45:02.164Z,3.80
2018-10-12T03:46:02.126Z,3.60
2018-10-12T03:47:02.096Z,4.10
2018-10-12T03:48:02.060Z,4.20
2018-10-12T03:49:02.020Z,3.80
2018-10-12T03:50:01.987Z,3.90
2018-10-12T03:51:01.953Z,4.20
2018-10-12T03:52:01.961Z,4.10
2018-10-12T03:53:01.912Z,4.20
2018-10-12T04:07:40.243Z,3.40
2018-10-12T04:08:40.179Z,4.20
2018-10-12T04:10:44.102Z,4.40
2018-10-12T04:11:44.025Z,4.40
2018-10-12T04:13:47.919Z,4.50
2018-10-12T04:14:47.882Z,4.30
2018-10-12T04:16:51.820Z,4.10
2018-10-12T04:17:51.735Z,4.20
2018-10-12T04:19:55.630Z,4.80
2018-10-12T04:20:55.595Z,4.30
2018-10-12T04:22:59.530Z,4.80
2018-10-12T04:23:59.446Z,4.50
2018-10-12T04:26:03.389Z,5.20
2018-10-12T04:27:03.310Z,5.00
2018-10-12T04:29:07.245Z,5.30
2018-10-12T04:30:07.168Z,4.60
2018-10-12T04:32:11.103Z,5.10
2018-10-12T04:33:11.032Z,4.60
2018-10-12T04:35:14.936Z,4.90
2018-10-12T04:36:14.894Z,5.20
2018-10-12T04:38:18.821Z,5.00
2018-10-12T04:39:18.755Z,4.90
2018-10-12T04:41:22.653Z,4.80
2018-10-12T04:42:22.612Z,4.90
2018-10-12T04:44:27.054Z,4.30
2018-10-12T04:45:26.976Z,4.80
2018-10-12T04:46:26.942Z,4.40
2018-10-12T04:47:26.993Z,4.50
2018-10-12T04:48:26.870Z,4.60
2018-10-12T04:49:26.841Z,4.20
2018-10-12T04:50:26.806Z,4.20
2018-10-12T04:51:26.768Z,4.60
2018-10-12T04:52:26.731Z,4.40
2018-10-12T04:53:26.691Z,4.50
2018-10-12T04:54:26.654Z,4.10
2018-10-12T04:55:26.619Z,5.40
2018-10-12T04:56:26.587Z,4.40
2018-10-12T04:57:26.559Z,4.10
2018-10-12T04:58:26.520Z,4.00
2018-10-12T04:59:26.495Z,4.00
2018-10-12T05:00:26.448Z,3.80
2018-10-12T05:01:26.411Z,3.40
2018-10-12T05:02:26.374Z,3.40
2018-10-12T05:03:26.343Z,3.40
2018-10-12T05:04:26.308Z,3.50
2018-10-12T05:05:26.273Z,3.40
2018-10-12T05:06:26.238Z,3.70
2018-10-12T05:07:26.216Z,3.40
2018-10-12T05:08:26.169Z,3.50
2018-10-12T05:09:26.135Z,3.40
2018-10-12T05:10:26.105Z,3.70
2018-10-12T05:11:26.065Z,3.70
2018-10-12T05:12:26.031Z,3.80
2018-10-12T05:13:26.003Z,3.50
2018-10-12T05:14:25.954Z,3.50
2018-10-12T05:15:25.930Z,3.50
2018-10-12T05:16:25.886Z,3.40
2018-10-12T05:17:25.857Z,3.50
2018-10-12T05:18:25.819Z,3.90
2018-10-12T05:19:25.780Z,3.60
2018-10-12T05:20:25.749Z,3.60
2018-10-12T05:21:25.714Z,3.60
2018-10-12T05:22:25.681Z,3.50
2018-10-12T05:23:25.646Z,3.40
2018-10-12T05:24:25.609Z,3.50
2018-10-12T05:25:25.573Z,3.60
2018-10-12T05:26:25.536Z,3.30
2018-10-12T05:27:25.500Z,3.30
2018-10-12T05:28:25.467Z,3.60
2018-10-12T05:29:25.436Z,3.80
2018-10-12T05:30:25.402Z,3.50
2018-10-12T05:31:25.366Z,3.40
2018-10-12T05:32:25.361Z,3.60
2018-10-12T05:33:25.292Z,3.40
2018-10-12T05:34:25.256Z,3.30
2018-10-12T05:35:25.227Z,3.30
2018-10-12T05:36:25.196Z,3.50
2018-10-12T05:37:25.153Z,3.30
2018-10-12T05:38:25.118Z,3.30
2018-10-12T05:39:25.083Z,2.80
2018-10-12T05:40:25.049Z,3.50
2018-10-12T05:41:25.015Z,3.50
2018-10-12T05:42:24.985Z,3.40
2018-10-12T05:43:25.062Z,3.10
2018-10-12T05:44:24.913Z,3.30
2018-10-12T05:45:24.873Z,3.10
2018-10-12T05:46:24.840Z,3.00
2018-10-12T05:47:24.805Z,3.00
2018-10-12T05:48:24.771Z,3.10
2018-10-12T05:49:24.740Z,3.40
2018-10-12T05:50:24.702Z,3.20
2018-10-12T05:51:24.663Z,3.60
2018-10-12T05:52:24.633Z,3.40
2018-10-12T05:53:24.597Z,3.70
2018-10-12T05:54:24.567Z,3.40
2018-10-12T05:55:24.532Z,3.40
2018-10-12T05:56:24.496Z,3.30
2018-10-12T05:57:24.455Z,3.10
2018-10-12T05:58:24.420Z,3.60
2018-10-12T05:59:24.383Z,3.60
2018-10-12T06:00:24.351Z,3.30
2018-10-12T06:01:24.376Z,3.60
2018-10-12T06:02:24.285Z,3.40
2018-10-12T06:03:24.253Z,3.40
2018-10-12T06:04:24.214Z,3.10
2018-10-12T06:05:24.176Z,3.50
2018-10-12T06:06:24.139Z,3.20
2018-10-12T06:07:24.112Z,3.40
2018-10-12T06:08:24.077Z,3.20
2018-10-12T06:09:24.119Z,3.70
2018-10-12T06:10:24.009Z,3.30
2018-10-12T06:11:24.087Z,3.20
2018-10-12T06:12:23.932Z,3.40
2018-10-12T06:13:23.898Z,3.00
2018-10-12T06:14:23.867Z,3.50
2018-10-12T06:15:23.866Z,3.30
2018-10-12T06:16:23.798Z,3.60
2018-10-12T06:17:23.758Z,3.90
2018-10-12T06:18:23.721Z,3.70
2018-10-12T06:19:23.686Z,3.40
2018-10-12T06:20:23.654Z,3.60
2018-10-12T06:21:23.653Z,3.70
2018-10-12T06:22:23.589Z,3.60
2018-10-12T06:23:23.549Z,3.70
2018-10-12T06:24:23.515Z,3.40
2018-10-12T06:25:23.484Z,3.60
2018-10-12T06:26:23.452Z,3.30
2018-10-12T06:27:23.416Z,3.40
2018-10-12T06:28:23.381Z,3.70
2018-10-12T06:29:23.345Z,3.50
2018-10-12T06:30:23.309Z,3.30
2018-10-12T06:31:23.270Z,3.50
2018-10-12T06:32:23.236Z,3.90
2018-10-12T06:33:23.210Z,3.40
2018-10-12T06:34:23.171Z,3.20
2018-10-12T06:35:23.137Z,3.20
2018-10-12T06:36:23.104Z,3.10
2018-10-12T06:37:23.062Z,3.30
2018-10-12T06:38:23.027Z,3.40
2018-10-12T06:39:22.998Z,3.50
2018-10-12T06:40:23.068Z,3.20
2018-10-12T06:41:22.965Z,3.30
2018-10-12T06:42:22.889Z,3.70
2018-10-12T06:43:22.855Z,3.30
2018-10-12T06:44:22.822Z,3.30
2018-10-12T06:45:22.788Z,3.60
2018-10-12T06:46:22.808Z,3.40
2018-10-12T06:47:22.721Z,3.20
2018-10-12T06:48:22.686Z,3.30
2018-10-12T06:49:22.648Z,3.30
2018-10-12T06:50:22.614Z,3.40
2018-10-12T06:51:22.580Z,3.40
2018-10-12T06:52:22.545Z,3.70
2018-10-12T06:53:22.524Z,3.30
2018-10-12T06:54:22.481Z,3.70
2018-10-12T06:55:22.443Z,3.50
2018-10-12T06:56:22.410Z,3.50
2018-10-12T06:57:22.375Z,3.50
2018-10-12T06:58:22.342Z,3.80
2018-10-12T06:59:22.309Z,3.90
2018-10-12T07:00:22.275Z,3.70
2018-10-12T07:01:22.236Z,3.80
2018-10-12T07:02:22.199Z,3.60
2018-10-12T07:03:22.167Z,3.70
2018-10-12T07:04:22.130Z,4.10
2018-10-12T07:05:22.102Z,3.90
2018-10-12T07:06:22.067Z,3.60
2018-10-12T07:07:22.042Z,4.10
2018-10-12T07:08:21.999Z,3.80
2018-10-12T07:09:21.959Z,3.70
2018-10-12T07:10:21.927Z,3.60
2018-10-12T07:11:21.894Z,4.10
2018-10-12T07:12:21.864Z,3.60
2018-10-12T07:13:21.822Z,3.50
2018-10-12T07:14:21.789Z,3.70
2018-10-12T07:15:21.755Z,3.80
2018-10-12T07:16:21.723Z,4.10
2018-10-12T07:17:21.691Z,3.70
2018-10-12T07:18:21.655Z,3.80
2018-10-12T07:19:21.671Z,4.20
2018-10-12T07:20:21.588Z,3.90
2018-10-12T07:21:21.547Z,3.70
2018-10-12T07:22:21.516Z,4.00
2018-10-12T07:23:21.491Z,4.10
2018-10-12T07:24:21.445Z,4.30
2018-10-12T07:25:21.419Z,4.00
2018-10-12T07:26:21.381Z,4.20
2018-10-12T07:27:21.345Z,3.90
2018-10-12T07:28:21.313Z,4.10
2018-10-12T07:29:21.281Z,4.70
2018-10-12T07:30:21.244Z,4.10
2018-10-12T07:31:21.256Z,4.00
2018-10-12T07:32:21.179Z,4.10
2018-10-12T07:33:21.201Z,4.00
2018-10-12T07:34:21.105Z,4.10
2018-10-12T07:35:21.073Z,3.90
2018-10-12T07:36:21.036Z,4.10
2018-10-12T07:37:21.046Z,3.90
2018-10-12T07:38:20.972Z,4.10
2018-10-12T07:39:20.939Z,4.00
2018-10-12T07:40:20.910Z,3.70
2018-10-12T07:41:20.873Z,4.00
2018-10-12T07:42:20.855Z,4.00
2018-10-12T07:43:20.803Z,3.50
2018-10-12T07:44:20.771Z,4.00
2018-10-12T07:45:20.735Z,3.60
2018-10-12T07:46:20.698Z,3.70
2018-10-12T07:47:20.689Z,3.30
2018-10-12T07:48:20.632Z,3.60
2018-10-12T07:49:20.601Z,3.40
2018-10-12T07:50:20.565Z,3.60
2018-10-12T07:51:20.533Z,3.60
2018-10-12T07:52:20.500Z,3.60
2018-10-12T07:53:20.544Z,3.40
2018-10-12T07:54:20.431Z,3.50
2018-10-12T07:55:20.395Z,3.40
2018-10-12T07:56:20.435Z,3.30
2018-10-12T07:57:20.332Z,3.10
2018-10-12T07:58:20.297Z,3.60
2018-10-12T07:59:20.260Z,3.60
2018-10-12T08:00:20.379Z,3.60
2018-10-12T08:01:20.198Z,3.30
2018-10-12T08:02:20.161Z,3.30
2018-10-12T08:03:20.127Z,3.00
2018-10-12T08:04:20.097Z,3.10
2018-10-12T08:05:20.057Z,3.30
2018-10-12T08:06:20.065Z,3.10
2018-10-12T08:07:19.993Z,3.00
2018-10-12T08:08:19.957Z,3.30
2018-10-12T08:09:19.929Z,3.00
2018-10-12T08:10:19.894Z,2.70
2018-10-12T08:11:19.861Z,2.50
2018-10-12T08:12:19.831Z,3.10
2018-10-12T08:13:19.790Z,2.90
2018-10-12T08:14:19.767Z,3.40
2018-10-12T08:15:19.726Z,2.90
2018-10-12T08:16:19.697Z,2.70
2018-10-12T08:17:19.657Z,2.80
2018-10-12T08:18:19.629Z,2.90
2018-10-12T08:19:19.594Z,2.80
2018-10-12T08:20:19.611Z,2.60
2018-10-12T08:21:19.530Z,2.70
2018-10-12T08:22:19.496Z,3.20
2018-10-12T08:23:19.462Z,2.60
2018-10-12T08:24:19.437Z,2.70
2018-10-12T08:25:19.416Z,2.70
2018-10-12T08:26:19.362Z,2.50
2018-10-12T08:27:19.328Z,2.60
2018-10-12T08:28:19.293Z,2.50
2018-10-12T08:29:19.266Z,2.40
2018-10-12T08:30:19.240Z,2.30
2018-10-12T08:31:19.208Z,2.50
2018-10-12T08:32:19.161Z,1.90
2018-10-12T08:33:19.139Z,2.10
2018-10-12T08:34:19.101Z,2.30
2018-10-12T08:35:19.066Z,2.10
2018-10-12T08:36:19.061Z,2.10
2018-10-12T08:37:18.996Z,2.10
2018-10-12T08:38:18.965Z,1.90
2018-10-12T08:39:18.934Z,2.10
2018-10-12T08:40:18.899Z,2.00
2018-10-12T08:41:18.874Z,1.90
2018-10-12T08:42:18.838Z,2.10
2018-10-12T08:43:18.805Z,2.10
2018-10-12T08:44:18.777Z,1.90
2018-10-12T08:45:18.734Z,2.00
2018-10-12T08:46:18.704Z,2.00
2018-10-12T08:47:18.673Z,1.90
2018-10-12T08:48:18.647Z,2.00
2018-10-12T08:49:18.632Z,2.20
2018-10-12T08:50:18.573Z,2.00
2018-10-12T08:51:18.542Z,2.00
2018-10-12T08:52:18.510Z,2.10
2018-10-12T08:53:18.480Z,1.80
2018-10-12T08:54:18.444Z,1.90
2018-10-12T08:55:18.441Z,1.80
2018-10-12T08:56:18.384Z,1.70
2018-10-12T08:57:18.344Z,1.80
2018-10-12T08:58:18.313Z,2.00
2018-10-12T08:59:18.281Z,1.70
2018-10-12T09:00:18.247Z,1.70
2018-10-12T09:01:18.238Z,1.70
2018-10-12T09:02:18.189Z,2.00
2018-10-12T09:03:18.152Z,2.00
2018-10-12T09:04:18.123Z,1.90
2018-10-12T09:05:18.090Z,1.60
2018-10-12T09:06:18.057Z,1.60
2018-10-12T09:07:18.025Z,1.60
2018-10-12T09:08:17.994Z,1.70
2018-10-12T09:09:17.955Z,1.70
2018-10-12T09:10:17.929Z,1.80
2018-10-12T09:11:17.893Z,1.70
2018-10-12T09:12:17.909Z,1.90
2018-10-12T09:13:17.833Z,1.70
2018-10-12T09:14:17.800Z,1.90
2018-10-12T09:15:17.765Z,1.60
2018-10-12T09:16:17.796Z,1.70
2018-10-12T09:17:17.698Z,1.60
2018-10-12T09:18:17.667Z,1.80
2018-10-12T09:19:17.671Z,1.90
2018-10-12T09:20:17.687Z,2.00
2018-10-12T09:21:17.568Z,1.70
2018-10-12T09:22:17.539Z,1.50
2018-10-12T09:23:17.507Z,1.80
2018-10-12T09:24:17.472Z,1.70
2018-10-12T09:25:17.448Z,1.90
2018-10-12T09:26:17.412Z,1.60
2018-10-12T09:27:17.425Z,1.90
2018-10-12T09:28:17.350Z,1.90
2018-10-12T09:29:17.314Z,1.80
2018-10-12T09:30:17.397Z,1.70
2018-10-12T09:31:17.250Z,1.80
2018-10-12T09:32:17.218Z,1.80
2018-10-12T09:33:17.189Z,1.70
2018-10-12T09:34:17.155Z,1.90
2018-10-12T09:35:17.128Z,1.80
2018-10-12T09:36:17.089Z,1.80
2018-10-12T09:37:17.062Z,1.80
2018-10-12T09:38:17.029Z,1.50
2018-10-12T09:39:16.996Z,1.60
2018-10-12T09:40:17.076Z,1.90
2018-10-12T09:41:16.928Z,1.70
2018-10-12T09:42:16.898Z,1.80
2018-10-12T09:43:16.920Z,2.00
2018-10-12T09:44:16.832Z,1.70
2018-10-12T09:45:16.806Z,1.80
2018-10-12T09:46:16.773Z,1.60
2018-10-12T09:47:16.740Z,1.90
2018-10-12T09:48:16.711Z,2.00
2018-10-12T09:49:16.793Z,2.00
2018-10-12T09:50:16.699Z,1.80
2018-10-12T09:51:16.614Z,1.80
2018-10-12T09:52:16.584Z,1.90
2018-10-12T09:53:16.545Z,1.90
2018-10-12T09:54:16.521Z,1.70
2018-10-12T09:55:16.486Z,1.80
2018-10-12T09:56:16.450Z,1.80
2018-10-12T09:57:16.425Z,2.10
2018-10-12T09:58:16.391Z,1.70
2018-10-12T09:59:16.359Z,1.90
2018-10-12T10:00:16.330Z,2.00
2018-10-12T10:01:16.292Z,1.70
2018-10-12T10:02:16.339Z,1.80
2018-10-12T10:03:16.230Z,1.90
2018-10-12T10:04:16.197Z,2.00
2018-10-12T10:05:16.170Z,1.50
2018-10-12T10:06:16.137Z,1.70
2018-10-12T10:21:01.724Z,2.20
2018-10-12T10:22:01.636Z,2.70
2018-10-12T10:23:01.600Z,2.40
2018-10-12T10:24:01.563Z,2.10
2018-10-12T10:25:01.592Z,2.40
2018-10-12T10:26:01.497Z,2.60
2018-10-12T10:27:01.462Z,2.30
2018-10-12T10:28:01.426Z,2.20
2018-10-12T10:29:01.402Z,2.30
2018-10-12T10:30:01.355Z,2.10
2018-10-12T10:31:01.324Z,1.80
2018-10-12T10:32:01.329Z,2.30
2018-10-12T10:33:01.260Z,2.30
2018-10-12T10:34:01.223Z,2.20
2018-10-12T10:35:01.190Z,2.50
2018-10-12T10:36:01.640Z,2.30
2018-10-12T10:37:01.129Z,2.30
2018-10-12T10:38:01.100Z,2.20
2018-10-12T10:39:01.086Z,2.50
2018-10-12T10:40:01.035Z,2.40
2018-10-12T10:41:00.999Z,2.40
2018-10-12T10:42:00.964Z,2.20
2018-10-12T10:43:00.931Z,2.20
2018-10-12T10:44:00.903Z,2.50
2018-10-12T10:45:00.884Z,2.30
2018-10-12T10:46:00.843Z,2.40
2018-10-12T10:47:00.806Z,2.40
2018-10-12T10:48:00.775Z,2.10
2018-10-12T10:49:00.747Z,2.10
2018-10-12T10:50:00.717Z,2.40
2018-10-12T10:51:00.684Z,2.60
2018-10-12T10:52:00.651Z,2.20
2018-10-12T10:53:00.617Z,2.20
2018-10-12T10:54:00.585Z,2.40
2018-10-12T10:55:00.553Z,2.10
2018-10-12T10:56:00.524Z,2.00
2018-10-12T10:57:00.495Z,2.30
2018-10-12T10:58:00.466Z,2.50
2018-10-12T10:59:00.436Z,2.20
2018-10-12T11:00:00.400Z,2.30
2018-10-12T11:01:00.412Z,2.40
2018-10-12T11:02:00.336Z,2.70
2018-10-12T11:03:00.310Z,2.50
2018-10-12T11:04:00.278Z,2.20
2018-10-12T11:05:00.245Z,2.30
2018-10-12T11:06:00.209Z,2.40
2018-10-12T11:07:00.179Z,2.60
2018-10-12T11:08:00.150Z,2.40
2018-10-12T11:09:00.122Z,2.50
2018-10-12T11:10:00.094Z,2.40
2018-10-12T11:11:00.061Z,2.70
2018-10-12T11:12:00.030Z,2.70
2018-10-12T11:13:00.037Z,2.60
2018-10-12T11:13:59.964Z,2.60
2018-10-12T11:14:59.931Z,2.50
2018-10-12T11:15:59.903Z,2.30
2018-10-12T11:16:59.877Z,2.60
2018-10-12T11:17:59.846Z,2.50
2018-10-12T11:18:59.809Z,2.40
2018-10-12T11:19:59.784Z,2.70
2018-10-12T11:20:59.751Z,2.50
2018-10-12T11:21:59.724Z,2.20
2018-10-12T11:22:59.695Z,2.50
2018-10-12T11:23:59.659Z,2.70
2018-10-12T11:24:59.626Z,2.80
2018-10-12T11:25:59.594Z,2.50
2018-10-12T11:26:59.563Z,2.60
2018-10-12T11:27:59.534Z,2.60
2018-10-12T11:28:59.506Z,2.50
2018-10-12T11:29:59.478Z,2.50
2018-10-12T11:30:59.446Z,2.50
2018-10-12T11:31:59.415Z,2.10
2018-10-12T11:32:59.640Z,2.30
2018-10-12T11:33:59.354Z,2.60
2018-10-12T11:34:59.324Z,2.60
2018-10-12T11:35:59.292Z,2.40
2018-10-12T11:36:59.262Z,2.60
2018-10-12T11:37:59.228Z,2.50
2018-10-12T11:38:59.196Z,2.50
2018-10-12T11:39:59.171Z,2.40
2018-10-12T11:40:59.141Z,2.70
2018-10-12T11:41:59.115Z,2.20
2018-10-12T11:42:59.082Z,2.50
2018-10-12T11:43:59.049Z,2.20
2018-10-12T11:44:59.053Z,2.30
2018-10-12T11:45:58.985Z,2.30
2018-10-12T11:46:58.955Z,2.20
2018-10-12T11:47:58.925Z,2.40
2018-10-12T11:48:58.898Z,2.20
2018-10-12T11:49:58.869Z,2.10
2018-10-12T11:50:58.833Z,2.30
2018-10-12T11:51:58.869Z,2.50
2018-10-12T11:52:58.777Z,2.40
2018-10-12T11:53:58.749Z,2.50
2018-10-12T11:54:58.718Z,2.30
2018-10-12T11:55:58.686Z,2.40
2018-10-12T11:56:58.655Z,2.40
2018-10-12T11:57:58.623Z,2.30
2018-10-12T11:58:58.596Z,2.60
2018-10-12T11:59:58.564Z,2.20
2018-10-12T12:00:58.627Z,2.30
2018-10-12T12:01:58.511Z,2.50
2018-10-12T12:02:58.476Z,2.40
2018-10-12T12:03:58.446Z,2.40
2018-10-12T12:04:58.413Z,2.40
2018-10-12T12:05:58.381Z,2.60
2018-10-12T12:06:58.357Z,2.40
2018-10-12T12:07:58.327Z,2.30
2018-10-12T12:08:58.297Z,2.20
2018-10-12T12:09:58.264Z,2.30
2018-10-12T12:10:58.230Z,2.10
2018-10-12T12:11:58.203Z,2.30
2018-10-12T12:12:58.175Z,2.30
2018-10-12T12:13:58.244Z,2.40
2018-10-12T12:14:58.118Z,2.50
2018-10-12T12:15:58.087Z,2.60
2018-10-12T12:16:58.053Z,2.20
2018-10-12T12:17:58.022Z,2.30
2018-10-12T12:18:57.991Z,2.40
2018-10-12T12:19:57.967Z,2.30
2018-10-12T12:20:57.939Z,2.30
2018-10-12T12:21:57.908Z,2.40
2018-10-12T12:22:57.872Z,1.90
2018-10-12T12:23:57.844Z,2.50
2018-10-12T12:24:57.819Z,2.20
2018-10-12T12:25:57.789Z,2.50
2018-10-12T12:26:57.759Z,2.40
2018-10-12T12:27:57.726Z,2.10
2018-10-12T12:28:57.696Z,2.20
2018-10-12T12:29:57.665Z,2.10
2018-10-12T12:30:57.633Z,2.00
2018-10-12T12:31:57.606Z,2.00
2018-10-12T12:32:57.598Z,2.20
2018-10-12T12:33:57.551Z,1.90
2018-10-12T12:34:57.637Z,2.00
2018-10-12T12:35:57.764Z,2.10
2018-10-12T12:36:57.459Z,2.00
2018-10-12T12:37:57.426Z,2.10
2018-10-12T12:38:57.402Z,2.00
2018-10-12T12:39:57.369Z,1.90
2018-10-12T12:40:57.338Z,2.30
2018-10-12T12:41:57.307Z,2.10
2018-10-12T12:42:57.276Z,2.00
2018-10-12T12:43:57.248Z,2.10
2018-10-12T12:44:57.221Z,2.00
2018-10-12T12:45:57.193Z,2.20
2018-10-12T12:46:57.162Z,2.00
2018-10-12T12:47:57.194Z,2.30
2018-10-12T12:48:57.542Z,1.90
2018-10-12T12:49:57.070Z,1.80
2018-10-12T12:50:57.037Z,2.00
2018-10-12T12:51:57.013Z,1.90
2018-10-12T12:52:56.983Z,1.80
2018-10-12T12:53:57.000Z,2.20
2018-10-12T12:54:56.918Z,2.10
2018-10-12T12:55:56.892Z,1.80
2018-10-12T12:56:56.864Z,2.20
2018-10-12T12:57:56.838Z,2.10
2018-10-12T12:58:56.807Z,2.10
2018-10-12T12:59:56.774Z,2.00
2018-10-12T13:00:56.744Z,2.20
2018-10-12T13:01:56.717Z,2.40
2018-10-12T13:02:56.682Z,2.00
2018-10-12T13:03:56.652Z,1.90
2018-10-12T13:04:56.627Z,1.90
2018-10-12T13:05:56.599Z,1.90
2018-10-12T13:06:56.569Z,2.10
2018-10-12T13:07:56.537Z,1.80
2018-10-12T13:08:56.506Z,2.00
2018-10-12T13:09:56.475Z,2.00
2018-10-12T13:10:56.450Z,1.90
2018-10-12T13:11:56.422Z,1.90
2018-10-12T13:12:56.388Z,2.10
2018-10-12T13:13:56.357Z,1.90
2018-10-12T13:14:56.327Z,2.10
2018-10-12T13:15:56.299Z,2.10
2018-10-12T13:16:56.272Z,2.40
2018-10-12T13:17:56.244Z,2.10
2018-10-12T13:18:56.218Z,2.20
2018-10-12T13:19:56.183Z,2.20
2018-10-12T13:20:56.151Z,2.20
2018-10-12T13:21:56.124Z,2.20
2018-10-12T13:22:56.090Z,2.40
2018-10-12T13:23:56.063Z,2.20
2018-10-12T13:24:56.036Z,2.10
2018-10-12T13:25:56.030Z,2.30
2018-10-12T13:26:56.159Z,2.70
2018-10-12T13:27:55.944Z,2.20
2018-10-12T13:28:55.917Z,2.40
2018-10-12T13:29:55.890Z,2.30
2018-10-12T13:30:55.861Z,2.00
2018-10-12T13:31:55.842Z,1.90
2018-10-12T13:32:55.800Z,2.40
2018-10-12T13:33:55.765Z,2.10
2018-10-12T13:34:55.741Z,2.20
2018-10-12T13:35:55.712Z,2.10
2018-10-12T13:36:55.679Z,2.30
2018-10-12T13:37:55.650Z,2.20
2018-10-12T13:38:55.616Z,2.00
2018-10-12T13:39:55.657Z,2.40
2018-10-12T13:40:55.562Z,2.50
2018-10-12T13:41:55.535Z,2.40
2018-10-12T13:42:55.498Z,2.30
2018-10-12T13:43:55.472Z,2.30
2018-10-12T13:44:55.444Z,2.30
2018-10-12T13:45:55.415Z,2.40
2018-10-12T13:46:55.386Z,2.20
2018-10-12T13:47:55.354Z,1.90
2018-10-12T13:48:55.323Z,1.90
2018-10-12T13:49:55.291Z,2.30
2018-10-12T13:50:55.266Z,2.50
2018-10-12T13:51:55.234Z,2.30
2018-10-12T13:52:55.206Z,2.00
2018-10-12T13:53:55.178Z,2.20
2018-10-12T13:54:55.149Z,2.20
2018-10-12T13:55:55.117Z,2.60
2018-10-12T13:56:55.087Z,2.20
2018-10-12T13:57:55.054Z,2.40